• Join FlightAware (Why Join?)
  • Login
  • US Flag GB Flag 
00:06 EDT


 

Airport Tracker/Info


-or-


 

Live Flight TrackerFlight Track Log ✈ CTL15 ✈ 24-May-2013 ✈ KMGY - KBKL

Flight Track Log - Related Links

Times and Time Zones

All times are in EDT time to prevent confusion due to time zone crossing. See the CTL15 flight status page for this flight to view local times or setup timezone preferences in your user account.

Time Position Orientation Groundspeed Altitude Reporting Facility
EDT Latitude Longitude Course Direction KTS MPH feet Rate Location/Type
20:37 39.6650 -84.1211 53° Northeast 121 139 5,000  Level Indianapolis Center
20:38 39.6797 -84.0958 53° Northeast 116 133 5,800 960 Climbing Indianapolis Center
20:39 39.6961 -84.0681 53° Northeast 116 133 6,700 840 Climbing Indianapolis Center
20:40 39.7167 -84.0394 47° Northeast 111 128 7,500 720 Climbing Indianapolis Center
20:41 39.7392 -84.0100 45° Northeast 111 128 8,300 720 Climbing Indianapolis Center
20:42 39.7631 -83.9806 43° Northeast 115 132 9,000 300 Climbing Indianapolis Center
20:43 39.7942 -83.9425 43° Northeast 150 173 9,000  Level Indianapolis Center
20:44 39.8228 -83.9061 44° Northeast 142 163 9,000  Level Indianapolis Center
20:45 39.8539 -83.8689 43° Northeast 149 171 9,000  Level Indianapolis Center
20:46 39.8844 -83.8292 45° Northeast 151 174 9,000  Level Indianapolis Center
20:47 39.9136 -83.7908 45° Northeast 150 173 9,000  Level Indianapolis Center
20:48 39.9403 -83.7572 44° Northeast 148 170 9,000  Level Indianapolis Center
20:49 39.9703 -83.7203 43° Northeast 150 173 9,000  Level Indianapolis Center
20:50 40.0019 -83.6861 40° Northeast 145 167 9,000  Level Indianapolis Center
20:51 40.0369 -83.6431 43° Northeast 149 171 9,000  Level Indianapolis Center
20:52 40.0622 -83.6092 46° Northeast 148 170 9,000  Level Indianapolis Center
20:53 40.0942 -83.5722 41° Northeast 149 171 9,000  Level Indianapolis Center
20:54 40.1219 -83.5347 46° Northeast 149 171 9,000  Level Indianapolis Center
20:55 40.1542 -83.4950 43° Northeast 151 174 9,000  Level Indianapolis Center
20:56 40.1886 -83.4528 43° Northeast 150 173 9,000  Level Indianapolis Center
20:57 40.2206 -83.4183 39° Northeast 151 174 9,000  Level Indianapolis Center
20:58 40.2483 -83.3808 46° Northeast 151 174 9,000 -120 Level Indianapolis Center
20:58 40.2522 -83.3775 33° Northeast 153 176 8,900  Descending Indianapolis Center
20:59 40.2806 -83.3383 47° Northeast 151 174 9,000  Climbing Indianapolis Center
21:00 40.3108 -83.2981 45° Northeast 154 177 9,000  Level Indianapolis Center
21:01 40.3406 -83.2608 44° Northeast 152 175 9,000  Level Indianapolis Center
21:02 40.3747 -83.2075 50° Northeast 155 178 9,000  Level Indianapolis Center
21:03 40.4050 -83.1681 45° Northeast 153 176 9,000  Level Indianapolis Center
21:04 40.4350 -83.1281 45° Northeast 153 176 9,000 -60 Level Indianapolis Center
21:05 40.4647 -83.0872 46° Northeast 152 175 8,900  Descending Indianapolis Center
21:06 40.4956 -83.0475 44° Northeast 153 176 9,000  Climbing Indianapolis Center
21:07 40.5242 -83.0092 46° Northeast 153 176 8,900 -60 Descending Indianapolis Center
21:08 40.5608 -82.9633 44° Northeast 154 177 8,900  Level Indianapolis Center
21:09 40.5917 -82.9233 45° Northeast 154 177 8,900  Level Indianapolis Center
21:10 40.6222 -82.8839 44° Northeast 154 177 8,900  Level Indianapolis Center
21:11 40.6533 -82.8439 44° Northeast 154 177 8,900  Level Indianapolis Center
21:12 40.6850 -82.8050 43° Northeast 155 178 8,900  Level Indianapolis Center
21:14 40.7156 -82.7644 45° Northeast 155 178 9,000  Climbing Indianapolis Center
21:15 40.7472 -82.7247 44° Northeast 155 178 8,900  Descending Indianapolis Center
21:16 40.7783 -82.6842 45° Northeast 156 180 9,000  Climbing Indianapolis Center
21:17 40.8103 -82.6456 42° Northeast 155 178 9,000  Level Indianapolis Center